createdAt,value
2023-05-30T00:00:09.124Z,18.84
2023-05-30T00:00:21.686Z,18.84
2023-05-30T00:00:34.538Z,18.80
2023-05-30T00:00:49.445Z,18.76
2023-05-30T00:01:02.097Z,18.77
2023-05-30T00:01:14.436Z,18.76
2023-05-30T00:01:26.787Z,18.76
2023-05-30T00:01:39.227Z,18.78
2023-05-30T00:01:52.407Z,18.79
2023-05-30T00:02:04.778Z,18.78
2023-05-30T00:02:17.051Z,18.80
2023-05-30T00:02:29.258Z,18.75
2023-05-30T00:02:45.180Z,18.73
2023-05-30T00:02:57.954Z,18.67
2023-05-30T00:03:10.484Z,18.69
2023-05-30T00:03:25.008Z,18.69
2023-05-30T00:03:37.872Z,18.71
2023-05-30T00:03:53.980Z,18.70
2023-05-30T00:04:06.335Z,18.69
2023-05-30T00:04:18.835Z,18.71
2023-05-30T00:04:31.532Z,18.70
2023-05-30T00:04:43.655Z,18.72
2023-05-30T00:04:56.238Z,18.72
2023-05-30T00:05:08.533Z,18.72
2023-05-30T00:05:20.749Z,18.74
2023-05-30T00:05:32.670Z,18.76
2023-05-30T00:05:44.904Z,18.79
2023-05-30T00:05:56.911Z,18.78
2023-05-30T00:06:08.884Z,18.76
2023-05-30T00:06:20.927Z,18.76
2023-05-30T00:06:32.910Z,18.77
2023-05-30T00:06:44.967Z,18.80
2023-05-30T00:06:57.396Z,18.80
2023-05-30T00:07:09.463Z,18.80
2023-05-30T00:07:21.713Z,18.82
2023-05-30T00:07:33.763Z,18.84
2023-05-30T00:07:45.784Z,18.82
2023-05-30T00:07:57.708Z,18.80
2023-05-30T00:08:09.668Z,18.82
2023-05-30T00:08:22.332Z,18.84
2023-05-30T00:08:34.412Z,18.84
2023-05-30T00:08:46.676Z,18.85
2023-05-30T00:08:58.911Z,18.85
2023-05-30T00:09:11.185Z,18.83
2023-05-30T00:09:23.124Z,18.77
2023-05-30T00:09:35.148Z,18.76
2023-05-30T00:09:47.683Z,18.75
2023-05-30T00:09:59.706Z,18.79
2023-05-30T00:10:11.626Z,18.81
2023-05-30T00:10:23.548Z,18.79
2023-05-30T00:10:35.596Z,18.74
2023-05-30T00:10:47.947Z,18.74
2023-05-30T00:10:59.941Z,18.74
2023-05-30T00:11:15.975Z,18.73
2023-05-30T00:11:29.367Z,18.75
2023-05-30T00:11:41.320Z,18.74
2023-05-30T00:11:55.790Z,18.72
2023-05-30T00:12:08.089Z,18.73
2023-05-30T00:12:20.026Z,18.73
2023-05-30T00:12:32.139Z,18.72
2023-05-30T00:12:47.700Z,18.74
2023-05-30T00:13:00.994Z,18.69
2023-05-30T00:13:14.464Z,18.68
2023-05-30T00:13:29.162Z,18.69
2023-05-30T00:13:45.786Z,18.71
2023-05-30T00:13:58.266Z,18.70
2023-05-30T00:14:11.156Z,18.70
2023-05-30T00:14:24.221Z,18.59
2023-05-30T00:14:37.997Z,18.62
2023-05-30T00:14:50.379Z,18.60
2023-05-30T00:15:04.125Z,18.63
2023-05-30T00:15:29.577Z,18.68
2023-05-30T00:15:41.880Z,18.64
2023-05-30T00:15:55.317Z,18.67
2023-05-30T00:16:08.457Z,18.66
2023-05-30T00:16:20.768Z,18.59
2023-05-30T00:16:32.905Z,18.59
2023-05-30T00:16:46.136Z,18.54
2023-05-30T00:16:59.384Z,18.54
2023-05-30T00:17:11.443Z,18.59
2023-05-30T00:17:23.464Z,18.60
2023-05-30T00:17:38.961Z,18.63
2023-05-30T00:17:53.517Z,18.66
2023-05-30T00:18:06.715Z,18.63
2023-05-30T00:18:19.086Z,18.63
2023-05-30T00:18:36.018Z,18.66
2023-05-30T00:18:48.105Z,18.70
2023-05-30T00:19:01.460Z,18.68
2023-05-30T00:19:14.709Z,18.70
2023-05-30T00:19:26.857Z,18.63
2023-05-30T00:19:38.877Z,18.59
2023-05-30T00:19:53.614Z,18.54
2023-05-30T00:20:10.033Z,18.58
2023-05-30T00:20:25.491Z,18.62
2023-05-30T00:20:37.654Z,18.66
2023-05-30T00:20:50.395Z,18.63
2023-05-30T00:21:04.989Z,18.65
2023-05-30T00:21:18.976Z,18.71
2023-05-30T00:21:32.618Z,18.75
2023-05-30T00:21:46.188Z,18.65
2023-05-30T00:21:58.576Z,18.57
2023-05-30T00:22:13.400Z,18.57
2023-05-30T00:22:26.565Z,18.59
2023-05-30T00:22:42.115Z,18.62
2023-05-30T00:22:54.317Z,18.59
2023-05-30T00:23:06.464Z,18.61
2023-05-30T00:23:19.166Z,18.62
2023-05-30T00:23:33.017Z,18.52
2023-05-30T00:23:46.274Z,18.54
2023-05-30T00:23:58.594Z,18.55
2023-05-30T00:24:10.722Z,18.55
2023-05-30T00:24:24.059Z,18.56
2023-05-30T00:24:35.986Z,18.60
2023-05-30T00:24:49.107Z,18.49
2023-05-30T00:25:01.242Z,18.51
2023-05-30T00:25:13.268Z,18.49
2023-05-30T00:25:25.683Z,18.50
2023-05-30T00:25:38.202Z,18.52
2023-05-30T00:25:50.656Z,18.48
2023-05-30T00:26:02.750Z,18.44
2023-05-30T00:26:14.745Z,18.38
2023-05-30T00:26:27.461Z,18.39
2023-05-30T00:26:39.455Z,18.46
2023-05-30T00:26:51.434Z,18.49
2023-05-30T00:27:03.551Z,18.53
2023-05-30T00:27:16.091Z,18.49
2023-05-30T00:27:28.295Z,18.50
2023-05-30T00:27:40.322Z,18.48
2023-05-30T00:27:52.270Z,18.46
2023-05-30T00:28:08.173Z,18.34
2023-05-30T00:28:20.172Z,18.20
2023-05-30T00:28:32.449Z,18.19
2023-05-30T00:28:44.464Z,18.26
2023-05-30T00:28:56.798Z,18.32
2023-05-30T00:29:08.958Z,18.23
2023-05-30T00:29:21.307Z,18.23
2023-05-30T00:29:33.243Z,18.31
2023-05-30T00:29:48.184Z,18.35
2023-05-30T00:30:00.245Z,18.25
2023-05-30T00:30:13.155Z,18.18
2023-05-30T00:30:26.807Z,18.21
2023-05-30T00:30:38.764Z,18.24
2023-05-30T00:30:50.757Z,18.30
2023-05-30T00:31:02.712Z,18.34
2023-05-30T00:31:14.676Z,18.39
2023-05-30T00:31:27.203Z,18.43
2023-05-30T00:31:39.222Z,18.48
2023-05-30T00:31:51.333Z,18.45
2023-05-30T00:32:03.616Z,18.48
2023-05-30T00:32:15.672Z,18.48
2023-05-30T00:32:27.736Z,18.51
2023-05-30T00:32:39.746Z,18.52
2023-05-30T00:32:51.796Z,18.53
2023-05-30T00:33:04.119Z,18.51
2023-05-30T00:33:16.429Z,18.54
2023-05-30T00:33:28.426Z,18.56
2023-05-30T00:33:40.779Z,18.55
2023-05-30T00:33:53.003Z,18.53
2023-05-30T00:34:05.196Z,18.44
2023-05-30T00:34:17.156Z,18.43
2023-05-30T00:34:29.317Z,18.38
2023-05-30T00:34:41.456Z,18.33
2023-05-30T00:34:53.478Z,18.39
2023-05-30T00:35:06.282Z,18.41
2023-05-30T00:35:18.537Z,18.36
2023-05-30T00:35:30.516Z,18.34
2023-05-30T00:35:42.764Z,18.39
2023-05-30T00:35:54.730Z,18.36
2023-05-30T00:36:06.990Z,18.30
2023-05-30T00:36:18.923Z,18.35
2023-05-30T00:36:32.184Z,18.27
2023-05-30T00:36:44.232Z,18.33
2023-05-30T00:36:56.257Z,18.39
2023-05-30T00:37:09.969Z,18.40
2023-05-30T00:37:22.024Z,18.45
2023-05-30T00:37:34.029Z,18.44
2023-05-30T00:37:46.023Z,18.38
2023-05-30T00:37:58.091Z,18.29
2023-05-30T00:38:10.253Z,18.14
2023-05-30T00:38:22.200Z,18.21
2023-05-30T00:38:34.365Z,18.24
2023-05-30T00:38:46.359Z,18.31
2023-05-30T00:38:58.388Z,18.29
2023-05-30T00:39:10.425Z,18.33
2023-05-30T00:39:22.362Z,18.31
2023-05-30T00:39:34.331Z,18.35
2023-05-30T00:39:46.441Z,18.30
2023-05-30T00:39:58.411Z,18.23
2023-05-30T00:40:10.686Z,18.22
2023-05-30T00:40:22.645Z,18.23
2023-05-30T00:40:34.606Z,18.26
2023-05-30T00:40:47.003Z,18.32
2023-05-30T00:40:59.227Z,18.34
2023-05-30T00:41:11.634Z,18.40
2023-05-30T00:41:23.648Z,18.44
2023-05-30T00:41:35.786Z,18.47
2023-05-30T00:41:47.999Z,18.49
2023-05-30T00:42:00.136Z,18.55
2023-05-30T00:42:12.122Z,18.58
2023-05-30T00:42:24.180Z,18.50
2023-05-30T00:42:36.148Z,18.51
2023-05-30T00:42:48.113Z,18.54
2023-05-30T00:43:00.291Z,18.59
2023-05-30T00:43:12.405Z,18.58
2023-05-30T00:43:24.436Z,18.53
2023-05-30T00:43:38.501Z,18.49
2023-05-30T00:43:50.660Z,18.36
2023-05-30T00:44:02.874Z,18.41
2023-05-30T00:44:15.074Z,18.45
2023-05-30T00:44:27.032Z,18.34
2023-05-30T00:44:38.980Z,18.35
2023-05-30T00:44:50.937Z,18.43
2023-05-30T00:45:02.889Z,18.45
2023-05-30T00:45:14.823Z,18.49
2023-05-30T00:45:27.027Z,18.44
2023-05-30T00:45:39.730Z,18.36
2023-05-30T00:45:57.028Z,18.41
2023-05-30T00:46:11.417Z,18.46
2023-05-30T00:46:31.289Z,18.48
2023-05-30T00:46:43.733Z,18.46
2023-05-30T00:46:55.967Z,18.44
2023-05-30T00:47:08.360Z,18.47
2023-05-30T00:47:20.885Z,18.50
2023-05-30T00:47:32.957Z,18.51
2023-05-30T00:47:45.002Z,18.52
2023-05-30T00:47:59.780Z,18.53
2023-05-30T00:48:12.981Z,18.53
2023-05-30T00:48:25.954Z,18.57
2023-05-30T00:48:38.629Z,18.51
2023-05-30T00:48:50.691Z,18.35
2023-05-30T00:49:03.639Z,18.34
2023-05-30T00:49:16.325Z,18.29
2023-05-30T00:49:28.593Z,18.34
2023-05-30T00:49:41.500Z,18.23
2023-05-30T00:49:54.606Z,18.22
2023-05-30T00:50:08.739Z,18.26
2023-05-30T00:50:21.775Z,18.30
2023-05-30T00:50:38.167Z,18.36
2023-05-30T00:50:51.901Z,18.44
2023-05-30T00:51:07.936Z,18.46
2023-05-30T00:51:20.400Z,18.21
2023-05-30T00:51:33.748Z,18.21
2023-05-30T00:51:45.956Z,18.25
2023-05-30T00:51:58.069Z,18.32
2023-05-30T00:52:10.595Z,18.39
2023-05-30T00:52:22.716Z,18.40
2023-05-30T00:52:35.821Z,18.42
2023-05-30T00:52:51.356Z,18.46
2023-05-30T00:53:04.289Z,18.47
2023-05-30T00:53:20.060Z,18.50
2023-05-30T00:53:32.535Z,18.54
2023-05-30T00:53:44.925Z,18.51
2023-05-30T00:53:57.354Z,18.50
2023-05-30T00:54:09.481Z,18.36
2023-05-30T00:54:25.588Z,18.34
2023-05-30T00:54:41.521Z,18.33
2023-05-30T00:54:54.133Z,18.36
2023-05-30T00:55:06.889Z,18.39
2023-05-30T00:55:19.718Z,18.42
2023-05-30T00:55:32.371Z,18.44
2023-05-30T00:55:44.660Z,18.48
2023-05-30T00:55:56.994Z,18.49
2023-05-30T00:56:09.348Z,18.50
2023-05-30T00:56:24.093Z,18.52
2023-05-30T00:56:37.191Z,18.53
2023-05-30T00:56:49.555Z,18.54
2023-05-30T00:57:02.668Z,18.41
2023-05-30T00:57:16.160Z,18.10
2023-05-30T00:57:29.344Z,18.08
2023-05-30T00:57:41.909Z,18.01
2023-05-30T00:57:54.802Z,18.01
2023-05-30T00:58:07.216Z,18.07
2023-05-30T00:58:20.164Z,18.04
2023-05-30T00:58:32.208Z,18.14
2023-05-30T00:58:44.505Z,18.17
2023-05-30T00:58:56.740Z,18.23
2023-05-30T00:59:08.731Z,18.30
2023-05-30T00:59:21.521Z,18.31
2023-05-30T00:59:33.766Z,18.36
2023-05-30T00:59:46.533Z,18.39
2023-05-30T00:59:58.558Z,18.42
2023-05-30T01:00:11.964Z,18.43
2023-05-30T01:00:26.317Z,18.43
2023-05-30T01:00:39.841Z,18.44
2023-05-30T01:00:52.189Z,18.41
2023-05-30T01:01:04.257Z,18.46
2023-05-30T01:01:16.256Z,18.49
2023-05-30T01:01:28.713Z,18.46
2023-05-30T01:01:43.888Z,18.48
2023-05-30T01:01:56.887Z,18.51
2023-05-30T01:02:08.885Z,18.53
2023-05-30T01:02:20.906Z,18.51
2023-05-30T01:02:37.003Z,18.57
2023-05-30T01:02:50.202Z,18.60
2023-05-30T01:03:02.542Z,18.36
2023-05-30T01:03:16.925Z,18.42
2023-05-30T01:03:34.035Z,18.45
2023-05-30T01:03:48.513Z,18.50
2023-05-30T01:04:02.526Z,18.51
2023-05-30T01:04:15.135Z,18.51
2023-05-30T01:04:27.383Z,18.34
2023-05-30T01:04:39.399Z,18.15
2023-05-30T01:04:51.402Z,17.97
2023-05-30T01:05:03.561Z,17.97
2023-05-30T01:05:16.092Z,18.02
2023-05-30T01:05:28.460Z,18.08
2023-05-30T01:05:40.730Z,18.15
2023-05-30T01:05:52.837Z,18.18
2023-05-30T01:06:07.617Z,18.24
2023-05-30T01:06:20.951Z,18.25
2023-05-30T01:06:33.564Z,18.27
2023-05-30T01:06:47.790Z,18.15
2023-05-30T01:07:00.532Z,18.06
2023-05-30T01:07:13.822Z,18.16
2023-05-30T01:07:25.884Z,18.23
2023-05-30T01:07:37.857Z,18.26
2023-05-30T01:07:49.868Z,18.34
2023-05-30T01:08:02.477Z,18.38
2023-05-30T01:08:14.499Z,18.35
2023-05-30T01:08:26.500Z,18.29
2023-05-30T01:08:38.546Z,18.36
2023-05-30T01:08:52.830Z,18.35
2023-05-30T01:09:05.761Z,18.40
2023-05-30T01:09:19.362Z,18.43
2023-05-30T01:09:31.620Z,18.46
2023-05-30T01:09:43.757Z,18.48
2023-05-30T01:09:55.993Z,18.45
2023-05-30T01:10:08.836Z,18.42
2023-05-30T01:10:21.793Z,18.20
2023-05-30T01:10:33.787Z,18.21
2023-05-30T01:10:48.581Z,18.14
2023-05-30T01:11:18.588Z,18.05
2023-05-30T01:11:41.873Z,18.24
2023-05-30T01:12:08.729Z,18.17
2023-05-30T01:12:43.302Z,18.17
2023-05-30T01:13:12.520Z,18.31
2023-05-30T01:13:57.521Z,18.41
2023-05-30T01:14:43.612Z,18.45
2023-05-30T01:14:55.550Z,18.43
2023-05-30T01:15:23.705Z,18.39
2023-05-30T01:15:43.467Z,18.24
2023-05-30T01:16:04.424Z,18.35
2023-05-30T01:16:23.444Z,18.41
2023-05-30T01:16:44.179Z,18.40
2023-05-30T01:17:03.262Z,18.39
2023-05-30T01:17:34.578Z,18.19
2023-05-30T01:17:53.256Z,18.23
2023-05-30T01:18:23.728Z,18.32
2023-05-30T01:19:10.988Z,18.40
2023-05-30T01:19:35.286Z,18.28
2023-05-30T01:20:09.096Z,18.22
2023-05-30T01:20:25.982Z,18.25
2023-05-30T01:20:41.609Z,18.25
2023-05-30T01:21:00.610Z,18.29
2023-05-30T01:21:16.477Z,18.30
2023-05-30T01:21:31.908Z,18.30
2023-05-30T01:21:45.399Z,18.36
2023-05-30T01:22:17.433Z,18.38
2023-05-30T01:22:50.368Z,18.42
2023-05-30T01:23:09.952Z,18.33
2023-05-30T01:23:36.952Z,18.35
2023-05-30T01:24:25.684Z,18.44
2023-05-30T01:24:45.388Z,18.21
2023-05-30T01:25:17.615Z,18.32
2023-05-30T01:26:00.997Z,18.11
2023-05-30T01:26:34.609Z,18.24
2023-05-30T01:27:25.391Z,18.30
2023-05-30T01:28:03.534Z,18.34
2023-05-30T01:28:22.331Z,18.27
2023-05-30T01:28:37.973Z,18.29
2023-05-30T01:28:52.286Z,18.36
2023-05-30T01:29:08.280Z,18.30
2023-05-30T01:29:22.620Z,18.11
2023-05-30T01:29:36.385Z,18.08
2023-05-30T01:29:50.269Z,18.13
2023-05-30T01:30:04.583Z,18.19
2023-05-30T01:30:17.551Z,18.20
2023-05-30T01:30:32.000Z,18.27
2023-05-30T01:30:49.351Z,18.27
2023-05-30T01:31:02.342Z,18.32
2023-05-30T01:31:15.563Z,18.35
2023-05-30T01:31:27.753Z,18.35
2023-05-30T01:31:40.125Z,18.37
2023-05-30T01:31:53.973Z,18.37
2023-05-30T01:32:06.957Z,18.40
2023-05-30T01:32:19.932Z,18.43
2023-05-30T01:32:32.417Z,18.45
2023-05-30T01:32:44.759Z,18.45
2023-05-30T01:32:56.934Z,18.45
2023-05-30T01:33:09.701Z,18.47
2023-05-30T01:33:22.848Z,18.48
2023-05-30T01:33:36.932Z,18.46
2023-05-30T01:33:52.375Z,18.44
2023-05-30T01:34:04.903Z,18.44
2023-05-30T01:34:17.036Z,18.43
2023-05-30T01:34:29.363Z,18.42
2023-05-30T01:34:41.500Z,18.43
2023-05-30T01:34:54.825Z,18.42
2023-05-30T01:35:07.073Z,18.45
2023-05-30T01:35:25.281Z,18.45
2023-05-30T01:35:37.289Z,18.43
2023-05-30T01:35:49.602Z,18.42
2023-05-30T01:36:01.567Z,18.45
2023-05-30T01:36:13.686Z,18.45
2023-05-30T01:36:27.404Z,18.46
2023-05-30T01:36:39.381Z,18.47
2023-05-30T01:36:51.345Z,18.47
2023-05-30T01:37:03.418Z,18.49
2023-05-30T01:37:15.459Z,18.44
2023-05-30T01:37:27.463Z,18.40
2023-05-30T01:37:39.435Z,18.40
2023-05-30T01:37:51.570Z,18.42
2023-05-30T01:38:03.578Z,18.42
2023-05-30T01:38:16.547Z,18.44
2023-05-30T01:38:28.655Z,18.40
2023-05-30T01:38:40.687Z,18.43
2023-05-30T01:38:52.932Z,18.45
2023-05-30T01:39:04.912Z,18.43
2023-05-30T01:39:17.123Z,18.42
2023-05-30T01:39:29.146Z,18.36
2023-05-30T01:39:41.211Z,18.36
2023-05-30T01:39:53.280Z,18.36
2023-05-30T01:40:05.872Z,18.30
2023-05-30T01:40:22.070Z,18.33
2023-05-30T01:40:34.605Z,18.29
2023-05-30T01:40:49.933Z,18.33
2023-05-30T01:41:02.703Z,18.36
2023-05-30T01:41:33.473Z,18.42
2023-05-30T01:42:13.020Z,18.41
2023-05-30T01:42:31.017Z,18.33
2023-05-30T01:42:45.936Z,18.35
2023-05-30T01:43:25.240Z,18.36
2023-05-30T01:43:37.263Z,18.40
2023-05-30T01:44:02.231Z,18.33
2023-05-30T01:44:25.718Z,18.34
2023-05-30T01:44:47.719Z,18.38
2023-05-30T01:45:16.414Z,18.39
2023-05-30T01:45:53.611Z,18.41
2023-05-30T01:46:29.824Z,18.37
2023-05-30T01:46:49.129Z,18.39
2023-05-30T01:47:10.928Z,18.40
2023-05-30T01:47:28.736Z,18.43
2023-05-30T01:47:52.997Z,18.41
2023-05-30T01:48:16.255Z,18.31
2023-05-30T01:48:28.104Z,18.26
2023-05-30T01:48:58.558Z,18.29
2023-05-30T01:49:19.564Z,18.28
2023-05-30T01:49:44.135Z,18.28
2023-05-30T01:50:00.161Z,18.29
2023-05-30T01:50:17.031Z,18.25
2023-05-30T01:50:43.761Z,18.24
2023-05-30T01:50:59.506Z,18.30
2023-05-30T01:51:15.020Z,18.34
2023-05-30T01:51:50.663Z,18.32
2023-05-30T01:52:09.413Z,18.32
2023-05-30T01:52:25.495Z,18.30
2023-05-30T01:52:41.869Z,18.30
2023-05-30T01:53:00.906Z,18.30
2023-05-30T01:53:22.132Z,18.29
2023-05-30T01:53:42.830Z,18.33
2023-05-30T01:54:00.812Z,18.28
2023-05-30T01:54:19.008Z,18.27
2023-05-30T01:54:34.582Z,18.16
2023-05-30T01:54:52.756Z,17.94
2023-05-30T01:55:07.788Z,17.95
2023-05-30T01:55:20.624Z,17.98
2023-05-30T01:55:36.429Z,18.04
2023-05-30T01:55:51.486Z,18.08
2023-05-30T01:56:06.629Z,18.04
2023-05-30T01:56:19.487Z,18.08
2023-05-30T01:56:33.775Z,18.12
2023-05-30T01:56:49.327Z,18.15
2023-05-30T01:57:09.604Z,18.16
2023-05-30T01:57:25.655Z,18.19
2023-05-30T01:57:45.961Z,18.20
2023-05-30T01:58:00.489Z,18.16
2023-05-30T01:58:16.067Z,18.10
2023-05-30T01:58:29.269Z,18.01
2023-05-30T01:58:42.149Z,18.03
2023-05-30T01:58:54.886Z,18.07
2023-05-30T01:59:09.332Z,18.10
2023-05-30T01:59:22.071Z,18.14
2023-05-30T01:59:35.233Z,18.13
2023-05-30T01:59:49.740Z,18.09
2023-05-30T02:00:02.750Z,18.09
2023-05-30T02:00:16.183Z,18.12
2023-05-30T02:00:31.270Z,18.07
2023-05-30T02:00:44.026Z,18.08
2023-05-30T02:00:57.597Z,18.04
2023-05-30T02:01:10.129Z,18.02
2023-05-30T02:01:25.892Z,17.99
2023-05-30T02:01:39.841Z,18.02
2023-05-30T02:01:54.470Z,18.07
2023-05-30T02:02:08.241Z,18.09
2023-05-30T02:02:20.284Z,18.09
2023-05-30T02:02:32.845Z,18.10
2023-05-30T02:02:45.717Z,18.04
2023-05-30T02:02:57.825Z,18.04
2023-05-30T02:03:11.385Z,18.08
2023-05-30T02:03:27.217Z,18.08
2023-05-30T02:03:39.266Z,18.08
2023-05-30T02:03:53.177Z,18.09
2023-05-30T02:04:05.444Z,18.08
2023-05-30T02:04:17.468Z,18.09
2023-05-30T02:04:29.437Z,18.10
2023-05-30T02:04:41.407Z,18.12
2023-05-30T02:04:53.330Z,18.12
2023-05-30T02:05:05.576Z,18.12
2023-05-30T02:05:17.608Z,18.13
2023-05-30T02:05:29.775Z,18.15
2023-05-30T02:05:41.841Z,18.15
2023-05-30T02:05:53.973Z,18.12
2023-05-30T02:06:06.934Z,18.14
2023-05-30T02:06:19.018Z,18.12
2023-05-30T02:06:30.998Z,18.13
2023-05-30T02:06:43.012Z,18.12
2023-05-30T02:06:54.987Z,18.13
2023-05-30T02:07:06.955Z,18.14
2023-05-30T02:07:18.896Z,18.15
2023-05-30T02:07:33.494Z,18.12
2023-05-30T02:07:45.981Z,18.13
2023-05-30T02:07:58.208Z,18.14
2023-05-30T02:08:10.852Z,18.14
2023-05-30T02:08:23.484Z,18.15
2023-05-30T02:08:35.505Z,18.14
2023-05-30T02:08:47.517Z,18.09
2023-05-30T02:08:59.528Z,18.09
2023-05-30T02:09:11.868Z,18.09
2023-05-30T02:09:26.174Z,18.08
2023-05-30T02:09:38.479Z,18.01
2023-05-30T02:09:50.570Z,18.01
2023-05-30T02:10:02.833Z,17.99
2023-05-30T02:10:14.818Z,17.99
2023-05-30T02:10:26.821Z,18.01
2023-05-30T02:10:38.869Z,18.02
2023-05-30T02:10:50.894Z,17.96
2023-05-30T02:11:03.121Z,17.99
2023-05-30T02:11:15.612Z,17.92
2023-05-30T02:11:28.147Z,17.93
2023-05-30T02:11:40.130Z,17.94
2023-05-30T02:11:52.174Z,17.92
2023-05-30T02:12:04.722Z,17.84
2023-05-30T02:12:16.797Z,17.85
2023-05-30T02:12:28.870Z,17.85
2023-05-30T02:12:41.311Z,17.82
2023-05-30T02:12:53.273Z,17.85
2023-05-30T02:13:05.347Z,17.82
2023-05-30T02:13:17.413Z,17.81
2023-05-30T02:13:29.429Z,17.75
2023-05-30T02:13:41.863Z,17.74
2023-05-30T02:13:53.873Z,17.72
2023-05-30T02:14:06.492Z,17.73
2023-05-30T02:14:21.066Z,17.63
2023-05-30T02:14:33.030Z,17.64
2023-05-30T02:14:45.433Z,17.66
2023-05-30T02:14:57.472Z,17.67
2023-05-30T02:15:09.762Z,17.68
2023-05-30T02:15:21.842Z,17.70
2023-05-30T02:15:33.780Z,17.69
2023-05-30T02:15:46.032Z,17.72
2023-05-30T02:15:58.645Z,17.69
2023-05-30T02:16:10.804Z,17.68
2023-05-30T02:16:25.697Z,17.65
2023-05-30T02:16:38.028Z,17.68
2023-05-30T02:16:50.325Z,17.71
2023-05-30T02:17:02.525Z,17.75
2023-05-30T02:17:14.934Z,17.77
2023-05-30T02:17:27.036Z,17.78
2023-05-30T02:17:39.240Z,17.78
2023-05-30T02:17:51.325Z,17.81
2023-05-30T02:18:05.162Z,17.83
2023-05-30T02:18:18.337Z,17.85
2023-05-30T02:18:30.464Z,17.85
2023-05-30T02:18:42.654Z,17.87
2023-05-30T02:18:54.754Z,17.86
2023-05-30T02:19:07.899Z,17.84
2023-05-30T02:19:20.987Z,17.81
2023-05-30T02:19:32.912Z,17.76
2023-05-30T02:19:44.953Z,17.75
2023-05-30T02:19:58.553Z,17.74
2023-05-30T02:20:10.964Z,17.67
2023-05-30T02:20:22.963Z,17.64
2023-05-30T02:20:35.663Z,17.63
2023-05-30T02:20:47.891Z,17.58
2023-05-30T02:21:00.126Z,17.56
2023-05-30T02:21:13.472Z,17.50
2023-05-30T02:21:25.591Z,17.50
2023-05-30T02:21:38.226Z,17.52
2023-05-30T02:21:50.282Z,17.52
2023-05-30T02:22:02.359Z,17.50
2023-05-30T02:22:14.394Z,17.50
2023-05-30T02:22:26.394Z,17.48
2023-05-30T02:22:38.458Z,17.42
2023-05-30T02:22:50.421Z,17.32
2023-05-30T02:23:02.338Z,17.35
2023-05-30T02:23:14.352Z,17.37
2023-05-30T02:23:26.356Z,17.43
2023-05-30T02:23:38.407Z,17.44
2023-05-30T02:23:50.867Z,17.49
2023-05-30T02:24:03.026Z,17.51
2023-05-30T02:24:15.035Z,17.52
2023-05-30T02:24:27.043Z,17.52
2023-05-30T02:24:39.112Z,17.50
2023-05-30T02:24:52.133Z,17.51
2023-05-30T02:25:04.290Z,17.52
2023-05-30T02:25:16.374Z,17.51
2023-05-30T02:25:28.549Z,17.44
2023-05-30T02:25:41.058Z,17.43
2023-05-30T02:25:53.288Z,17.41
2023-05-30T02:26:06.149Z,17.36
2023-05-30T02:26:18.089Z,17.40
2023-05-30T02:26:30.261Z,17.40
2023-05-30T02:26:42.200Z,17.39
2023-05-30T02:26:54.117Z,17.39
2023-05-30T02:27:06.892Z,17.40
2023-05-30T02:27:18.990Z,17.40
2023-05-30T02:27:31.009Z,17.40
2023-05-30T02:27:43.266Z,17.39
2023-05-30T02:27:55.306Z,17.36
2023-05-30T02:28:07.264Z,17.38
2023-05-30T02:28:22.270Z,17.38
2023-05-30T02:28:34.627Z,17.39
2023-05-30T02:28:46.619Z,17.38
2023-05-30T02:28:58.565Z,17.40
2023-05-30T02:29:11.160Z,17.40
2023-05-30T02:29:23.298Z,17.40
2023-05-30T02:29:35.540Z,17.41
2023-05-30T02:29:47.504Z,17.42
2023-05-30T02:29:59.462Z,17.42
2023-05-30T02:30:12.123Z,17.31
2023-05-30T02:30:24.039Z,17.32
2023-05-30T02:30:36.273Z,17.33
2023-05-30T02:30:48.227Z,17.30
2023-05-30T02:31:00.705Z,17.32
2023-05-30T02:31:12.639Z,17.34
2023-05-30T02:31:24.688Z,17.34
2023-05-30T02:31:36.677Z,17.34
2023-05-30T02:31:48.690Z,17.35
2023-05-30T02:32:00.768Z,17.35
2023-05-30T02:32:12.859Z,17.35
2023-05-30T02:32:25.038Z,17.35
2023-05-30T02:32:37.254Z,17.33
2023-05-30T02:32:49.321Z,17.33
2023-05-30T02:33:01.410Z,17.32
2023-05-30T02:33:13.540Z,17.32
2023-05-30T02:33:25.789Z,17.32
2023-05-30T02:33:37.711Z,17.31
2023-05-30T02:33:49.682Z,17.27
2023-05-30T02:34:01.630Z,17.27
2023-05-30T02:34:13.649Z,17.26
2023-05-30T02:34:25.554Z,17.27
2023-05-30T02:34:37.808Z,17.28
2023-05-30T02:34:49.803Z,17.27
2023-05-30T02:35:01.916Z,17.29
2023-05-30T02:35:14.269Z,17.29
2023-05-30T02:35:26.219Z,17.28
2023-05-30T02:35:38.179Z,17.28
2023-05-30T02:35:50.378Z,17.25
2023-05-30T02:36:02.315Z,17.22
2023-05-30T02:36:15.206Z,17.22
2023-05-30T02:36:27.207Z,17.16
2023-05-30T02:36:40.061Z,17.15
2023-05-30T02:36:52.150Z,17.12
2023-05-30T02:37:04.298Z,17.09
2023-05-30T02:37:16.257Z,17.11
2023-05-30T02:37:28.958Z,17.11
2023-05-30T02:37:41.104Z,17.09
2023-05-30T02:37:53.106Z,17.09
2023-05-30T02:38:05.135Z,17.11
2023-05-30T02:38:17.093Z,17.14
2023-05-30T02:38:29.012Z,17.14
2023-05-30T02:38:41.024Z,17.15
2023-05-30T02:38:52.998Z,17.10
2023-05-30T02:39:08.443Z,17.11
2023-05-30T02:39:20.817Z,17.12
2023-05-30T02:39:36.281Z,17.15
2023-05-30T02:39:48.216Z,17.16
2023-05-30T02:40:00.196Z,17.17
2023-05-30T02:40:12.691Z,17.19
2023-05-30T02:40:24.672Z,17.17
2023-05-30T02:40:36.652Z,17.14
2023-05-30T02:40:48.633Z,17.07
2023-05-30T02:41:00.682Z,17.04
2023-05-30T02:41:12.629Z,17.05
2023-05-30T02:41:24.596Z,17.06
2023-05-30T02:41:38.673Z,17.05
2023-05-30T02:41:50.640Z,17.02
2023-05-30T02:42:02.739Z,17.00
2023-05-30T02:42:14.825Z,17.02
2023-05-30T02:42:26.794Z,17.04
2023-05-30T02:42:38.886Z,17.06
2023-05-30T02:42:51.061Z,17.07
2023-05-30T02:43:09.626Z,17.07
2023-05-30T02:43:29.144Z,17.06
2023-05-30T02:43:41.865Z,17.09
2023-05-30T02:43:53.828Z,17.09
2023-05-30T02:44:07.748Z,17.12
2023-05-30T02:44:19.781Z,17.10
2023-05-30T02:44:31.914Z,17.09
2023-05-30T02:44:43.873Z,17.08
2023-05-30T02:44:55.946Z,17.07
2023-05-30T02:45:08.447Z,17.03
2023-05-30T02:45:20.416Z,16.93
2023-05-30T02:45:32.471Z,16.94
2023-05-30T02:45:44.449Z,16.93
2023-05-30T02:45:56.379Z,16.90
2023-05-30T02:46:08.338Z,16.92
2023-05-30T02:46:20.429Z,16.93
2023-05-30T02:46:32.471Z,16.97
2023-05-30T02:46:44.550Z,16.99
2023-05-30T02:46:56.538Z,17.02
2023-05-30T02:47:09.732Z,17.04
2023-05-30T02:47:21.751Z,17.06
2023-05-30T02:47:33.836Z,17.08
2023-05-30T02:47:45.913Z,17.09
2023-05-30T02:47:58.043Z,17.10
2023-05-30T02:48:10.051Z,17.09
2023-05-30T02:48:24.354Z,17.04
2023-05-30T02:48:36.449Z,17.03
2023-05-30T02:48:48.432Z,17.01
2023-05-30T02:49:00.807Z,16.99
2023-05-30T02:49:12.799Z,17.01
2023-05-30T02:49:24.709Z,17.03
2023-05-30T02:49:36.673Z,17.02
2023-05-30T02:49:48.882Z,17.02
2023-05-30T02:50:00.853Z,17.02
2023-05-30T02:50:13.040Z,17.04
2023-05-30T02:50:25.011Z,17.00
2023-05-30T02:50:37.132Z,17.02
2023-05-30T02:50:49.129Z,17.02
2023-05-30T02:51:01.212Z,17.04
2023-05-30T02:51:13.905Z,17.03
2023-05-30T02:51:26.741Z,17.03
2023-05-30T02:51:38.719Z,17.02
2023-05-30T02:51:50.842Z,17.03
2023-05-30T02:52:02.994Z,17.04
2023-05-30T02:52:17.813Z,17.06
2023-05-30T02:52:31.914Z,17.07
2023-05-30T02:52:43.916Z,17.08
2023-05-30T02:52:55.884Z,17.06
2023-05-30T02:53:11.222Z,17.04
2023-05-30T02:53:23.286Z,17.03
2023-05-30T02:53:35.441Z,17.01
2023-05-30T02:53:47.550Z,17.00
2023-05-30T02:53:59.481Z,16.97
2023-05-30T02:54:11.495Z,16.95
2023-05-30T02:54:24.355Z,16.92
2023-05-30T02:54:36.375Z,16.94
2023-05-30T02:54:49.706Z,16.94
2023-05-30T02:55:02.402Z,16.93
2023-05-30T02:55:14.441Z,16.89
2023-05-30T02:55:27.236Z,16.88
2023-05-30T02:55:43.459Z,16.90
2023-05-30T02:55:57.276Z,16.84
2023-05-30T02:56:09.207Z,16.84
2023-05-30T02:56:26.493Z,16.86
2023-05-30T02:56:38.436Z,16.86
2023-05-30T02:56:50.429Z,16.90
2023-05-30T02:57:02.910Z,16.89
2023-05-30T02:57:15.088Z,16.92
2023-05-30T02:57:27.107Z,16.94
2023-05-30T02:57:39.130Z,16.95
2023-05-30T02:57:51.063Z,16.94
2023-05-30T02:58:03.120Z,16.95
2023-05-30T02:58:15.459Z,16.91
2023-05-30T02:58:27.585Z,16.94
2023-05-30T02:58:39.770Z,16.94
2023-05-30T02:58:52.028Z,16.96
2023-05-30T02:59:04.216Z,16.91
2023-05-30T02:59:16.281Z,16.94
2023-05-30T02:59:28.274Z,16.92
2023-05-30T02:59:40.506Z,16.90
2023-05-30T02:59:53.355Z,16.90